Time;durP1;ratioP1;P1;durP2;ratioP2;P2;SDS_P1;SDS_P2;PMS_P1;PMS_P2;Temp;Humidity;BMP_temperature;BMP_pressure;BME280_temperature;BME280_humidity;BME280_pressure;Samples;Min_cycle;Max_cycle;Signal;HPM_P1;HPM_P2
2022/05/22 00:01:40;;;;;;;10.63;5.32;;;10.50;99.90;;;;;;5007159;28;20041;-75
2022/05/22 00:04:06;;;;;;;9.95;5.47;;;10.50;99.90;;;;;;5007016;28;20060;-75
2022/05/22 00:06:32;;;;;;;14.05;5.53;;;10.50;99.90;;;;;;5007027;28;20041;-76
2022/05/22 00:08:57;;;;;;;20.35;6.57;;;10.30;99.90;;;;;;4988594;28;20046;-75
2022/05/22 00:11:23;;;;;;;12.02;6.47;;;10.40;99.90;;;;;;5005750;28;20592;-75
2022/05/22 00:13:49;;;;;;;22.02;8.20;;;10.30;99.90;;;;;;5006806;28;20041;-75
2022/05/22 00:18:59;;;;;;;12.77;5.32;;;10.30;99.90;;;;;;5006817;28;20049;-75
2022/05/22 00:21:25;;;;;;;19.42;7.35;;;10.20;99.90;;;;;;5006520;28;20460;-75
2022/05/22 00:23:51;;;;;;;13.57;6.10;;;10.20;99.90;;;;;;5005691;28;20056;-74
2022/05/22 00:26:17;;;;;;;13.35;7.63;;;10.10;99.90;;;;;;5006601;28;20053;-75
2022/05/22 00:28:42;;;;;;;14.90;6.40;;;10.10;99.90;;;;;;5005434;28;20068;-75
2022/05/22 00:31:08;;;;;;;10.98;6.78;;;10.20;99.90;;;;;;5006257;28;20133;-75
2022/05/22 00:33:34;;;;;;;12.30;6.05;;;10.10;99.90;;;;;;5005263;28;20497;-75
2022/05/22 00:35:59;;;;;;;19.50;6.95;;;10.10;99.90;;;;;;5004833;28;20460;-74
2022/05/22 00:38:25;;;;;;;14.80;6.60;;;10.10;99.90;;;;;;5004969;28;20042;-74
2022/05/22 00:40:51;;;;;;;20.48;8.85;;;10.10;99.90;;;;;;5006047;28;20041;-74
2022/05/22 00:43:36;;;;;;;13.23;6.47;;;10.10;99.90;;;;;;5006130;28;20042;-73
2022/05/22 00:46:05;;;;;;;12.70;6.97;;;10.10;99.90;;;;;;5005028;28;20456;-74
2022/05/22 00:48:32;;;;;;;10.00;5.75;;;10.10;99.90;;;;;;5004892;28;20145;-74
2022/05/22 00:51:07;;;;;;;11.05;5.95;;;10.10;99.90;;;;;;5004920;28;20046;-75
2022/05/22 00:53:36;;;;;;;13.32;6.03;;;10.10;99.90;;;;;;5005161;28;20516;-75
2022/05/22 00:56:07;;;;;;;12.43;5.82;;;10.10;99.90;;;;;;5005820;28;20042;-76
2022/05/22 00:58:34;;;;;;;16.77;7.18;;;10.10;99.90;;;;;;5006357;28;20046;-75
2022/05/22 01:01:02;;;;;;;15.65;7.35;;;10.00;99.90;;;;;;5006225;28;20129;-73
2022/05/22 01:03:28;;;;;;;14.20;6.25;;;10.00;99.90;;;;;;5004512;28;20093;-75
2022/05/22 01:06:03;;;;;;;11.80;5.57;;;9.90;99.90;;;;;;5004797;28;20037;-75
2022/05/22 01:08:31;;;;;;;14.80;6.07;;;9.90;99.90;;;;;;5004402;28;20054;-75
2022/05/22 01:11:01;;;;;;;10.02;5.65;;;10.00;99.90;;;;;;5006149;28;20104;-75
2022/05/22 01:13:44;;;;;;;9.55;6.07;;;9.90;99.90;;;;;;5005917;28;20475;-73
2022/05/22 01:16:10;;;;;;;11.27;6.68;;;9.90;99.90;;;;;;5004391;28;20041;-73
2022/05/22 01:18:47;;;;;;;13.68;6.82;;;9.90;99.90;;;;;;5004782;28;20041;-75
2022/05/22 01:21:25;;;;;;;12.18;5.75;;;9.90;99.90;;;;;;5007798;28;20054;-75
2022/05/22 01:23:52;;;;;;;19.73;7.72;;;9.90;99.90;;;;;;5008719;28;20104;-75
2022/05/22 01:26:18;;;;;;;12.05;7.18;;;9.90;99.90;;;;;;5009711;28;20034;-75
2022/05/22 01:28:44;;;;;;;16.77;8.13;;;9.90;99.90;;;;;;5010049;28;20100;-74
2022/05/22 01:31:11;;;;;;;14.90;6.55;;;10.00;99.90;;;;;;5008680;28;20464;-76
2022/05/22 01:33:38;;;;;;;12.68;7.22;;;9.90;99.90;;;;;;5009590;28;20096;-75
2022/05/22 01:36:05;;;;;;;17.05;8.05;;;9.90;99.90;;;;;;5008502;28;20038;-75
2022/05/22 01:38:31;;;;;;;12.27;6.47;;;9.80;99.90;;;;;;5024057;28;20504;-75
2022/05/22 01:40:57;;;;;;;16.13;7.15;;;9.80;99.90;;;;;;5008530;28;20042;-74
2022/05/22 01:43:23;;;;;;;20.88;10.05;;;9.80;99.90;;;;;;5009134;28;20100;-75
2022/05/22 01:45:49;;;;;;;15.85;6.78;;;9.80;99.90;;;;;;5009334;28;20517;-76
2022/05/22 01:48:15;;;;;;;17.33;7.22;;;9.70;99.90;;;;;;5009578;28;20385;-76
2022/05/22 01:50:43;;;;;;;11.68;7.38;;;9.70;99.90;;;;;;5009582;28;20077;-75
2022/05/22 01:53:09;;;;;;;14.70;7.75;;;9.60;99.90;;;;;;5008503;28;20161;-75
2022/05/22 01:55:35;;;;;;;22.52;7.70;;;9.60;99.90;;;;;;5008243;28;20046;-75
2022/05/22 01:58:01;;;;;;;18.73;7.63;;;9.60;99.90;;;;;;4991875;28;20068;-75
2022/05/22 02:00:27;;;;;;;11.98;8.65;;;9.60;99.90;;;;;;5007813;28;20077;-75
2022/05/22 02:02:55;;;;;;;18.55;8.43;;;9.60;99.90;;;;;;5009299;28;20038;-74
2022/05/22 02:05:21;;;;;;;27.35;9.75;;;9.60;99.90;;;;;;5008826;28;20041;-75
2022/05/22 02:10:32;;;;;;;18.23;7.93;;;9.60;99.90;;;;;;5009002;28;20046;-74
2022/05/22 02:12:58;;;;;;;14.05;7.85;;;9.60;99.90;;;;;;5007568;28;20046;-75
2022/05/22 02:15:24;;;;;;;18.83;7.80;;;9.60;99.90;;;;;;5007357;28;20063;-75
2022/05/22 02:17:51;;;;;;;10.93;6.97;;;9.60;99.90;;;;;;5009217;28;20132;-75
2022/05/22 02:20:18;;;;;;;12.55;7.53;;;9.70;99.90;;;;;;5008906;28;20048;-75
2022/05/22 02:22:51;;;;;;;9.30;6.97;;;9.60;99.90;;;;;;5006857;28;20085;-75
2022/05/22 02:25:20;;;;;;;18.50;7.25;;;9.60;99.90;;;;;;5008641;28;20123;-75
2022/05/22 02:27:46;;;;;;;13.25;7.93;;;9.50;99.90;;;;;;5008757;28;20038;-74
2022/05/22 02:30:15;;;;;;;14.75;7.03;;;9.50;99.90;;;;;;5009239;28;20048;-75
2022/05/22 02:32:41;;;;;;;10.57;6.70;;;9.40;99.90;;;;;;5007979;28;20452;-75
2022/05/22 02:35:09;;;;;;;13.25;6.75;;;9.40;99.90;;;;;;5008297;28;20089;-74
2022/05/22 02:37:46;;;;;;;12.95;7.60;;;9.40;99.90;;;;;;5006803;28;20404;-75
2022/05/22 02:40:13;;;;;;;14.60;7.53;;;9.40;99.90;;;;;;5008681;28;20464;-74
2022/05/22 02:42:40;;;;;;;16.35;6.82;;;9.40;99.90;;;;;;5008453;28;20038;-74
2022/05/22 02:45:06;;;;;;;13.38;7.13;;;9.40;99.90;;;;;;5006890;28;20050;-75
2022/05/22 02:47:33;;;;;;;9.77;6.55;;;9.40;99.90;;;;;;4990700;28;20141;-74
2022/05/22 02:49:59;;;;;;;15.43;7.55;;;9.20;99.90;;;;;;5008261;28;20042;-74
2022/05/22 02:52:24;;;;;;;10.38;6.03;;;9.10;99.90;;;;;;5006942;28;20045;-74
2022/05/22 02:54:50;;;;;;;8.20;6.40;;;8.90;99.90;;;;;;5008035;28;20042;-74
2022/05/22 02:57:21;;;;;;;14.95;6.78;;;9.00;99.90;;;;;;5007348;28;20048;-74
2022/05/22 02:59:47;;;;;;;9.30;5.75;;;9.00;99.90;;;;;;5008002;28;20041;-74
2022/05/22 03:02:13;;;;;;;13.23;7.57;;;8.90;99.90;;;;;;5007100;28;20042;-74
2022/05/22 03:04:39;;;;;;;15.13;6.88;;;8.90;99.90;;;;;;5007027;28;20061;-74
2022/05/22 03:07:05;;;;;;;11.50;6.70;;;8.80;99.90;;;;;;5005942;28;20073;-74
2022/05/22 03:09:31;;;;;;;10.75;6.72;;;8.90;99.90;;;;;;4990885;28;20045;-74
2022/05/22 03:11:57;;;;;;;7.97;6.55;;;9.00;99.90;;;;;;5008022;28;20561;-75
2022/05/22 03:14:23;;;;;;;11.27;6.63;;;9.10;99.90;;;;;;5006221;28;20057;-75
2022/05/22 03:16:49;;;;;;;10.15;7.18;;;9.20;99.90;;;;;;5007827;28;20041;-76
2022/05/22 03:19:15;;;;;;;14.35;6.38;;;9.10;99.90;;;;;;5007924;28;20548;-74
2022/05/22 03:21:44;;;;;;;18.42;6.32;;;9.10;99.90;;;;;;5005129;28;20103;-73
2022/05/22 03:24:10;;;;;;;12.60;6.65;;;9.30;99.90;;;;;;5005814;28;20056;-74
2022/05/22 03:26:35;;;;;;;12.45;6.68;;;9.20;99.90;;;;;;5007601;28;20128;-73
2022/05/22 03:29:01;;;;;;;9.82;6.28;;;9.10;99.90;;;;;;5007498;28;20138;-74
2022/05/22 03:31:27;;;;;;;10.25;7.40;;;9.10;99.90;;;;;;5006119;28;20053;-75
2022/05/22 03:33:53;;;;;;;14.55;7.50;;;8.90;99.90;;;;;;5007194;28;20046;-74
2022/05/22 03:36:18;;;;;;;13.55;6.95;;;9.10;99.90;;;;;;5007191;28;20409;-74
2022/05/22 03:38:44;;;;;;;10.70;7.18;;;9.20;99.90;;;;;;5006765;28;20412;-74
2022/05/22 03:41:10;;;;;;;9.90;6.88;;;9.20;99.90;;;;;;5007312;28;20382;-74
2022/05/22 03:43:35;;;;;;;13.23;7.78;;;9.20;99.90;;;;;;5007183;28;20053;-73
2022/05/22 03:46:01;;;;;;;12.55;6.93;;;9.30;99.90;;;;;;5005111;28;20054;-74
2022/05/22 03:48:27;;;;;;;11.10;8.13;;;9.30;99.90;;;;;;5006739;28;20069;-74
2022/05/22 03:50:53;;;;;;;17.88;8.70;;;9.30;99.90;;;;;;5007140;28;20164;-73
2022/05/22 03:53:18;;;;;;;12.23;8.52;;;9.30;99.90;;;;;;5006260;28;20519;-75
2022/05/22 03:55:44;;;;;;;18.60;7.35;;;9.30;99.90;;;;;;5007585;28;20042;-75
2022/05/22 03:58:10;;;;;;;10.68;7.60;;;9.30;99.90;;;;;;5005564;28;20065;-74
2022/05/22 04:00:36;;;;;;;10.48;6.78;;;9.30;99.90;;;;;;4989466;28;20607;-75
2022/05/22 04:03:02;;;;;;;14.73;7.35;;;9.30;99.90;;;;;;5006659;28;20412;-74
2022/05/22 04:05:29;;;;;;;14.98;8.55;;;9.30;99.90;;;;;;4988887;28;20049;-73
2022/05/22 04:07:55;;;;;;;12.65;7.03;;;9.40;99.90;;;;;;5004722;28;20054;-73
2022/05/22 04:10:20;;;;;;;16.52;7.95;;;9.50;99.90;;;;;;5021922;28;20064;-73
2022/05/22 04:12:47;;;;;;;12.40;7.72;;;9.60;99.90;;;;;;5006862;28;20497;-74
2022/05/22 04:15:16;;;;;;;12.75;7.70;;;9.50;99.90;;;;;;5007067;28;20038;-73
2022/05/22 04:17:42;;;;;;;10.30;6.57;;;9.80;99.90;;;;;;5005470;28;20125;-74
2022/05/22 04:20:08;;;;;;;14.27;8.05;;;10.70;99.90;;;;;;5005347;28;20044;-73
2022/05/22 04:25:10;;;;;;;9.45;7.05;;;11.00;99.90;;;;;;5004340;28;20053;-74
2022/05/22 04:25:21;;;;;;;16.45;8.93;;;10.60;99.90;;;;;;5005203;28;20076;-73
2022/05/22 04:27:47;;;;;;;24.13;8.48;;;10.40;99.90;;;;;;5006171;28;20493;-74
2022/05/22 04:30:17;;;;;;;12.93;8.70;;;10.20;99.90;;;;;;5007022;28;20073;-73
2022/05/22 04:32:44;;;;;;;13.52;7.20;;;10.20;99.90;;;;;;5006384;28;20044;-73
2022/05/22 04:35:10;;;;;;;16.25;8.07;;;10.10;99.90;;;;;;5004796;28;20050;-75
2022/05/22 04:37:36;;;;;;;12.52;8.48;;;10.20;99.90;;;;;;5005497;28;20902;-74
2022/05/22 04:40:01;;;;;;;18.00;9.98;;;10.20;99.90;;;;;;5005891;28;20555;-73
2022/05/22 04:42:27;;;;;;;21.23;8.98;;;10.20;99.90;;;;;;5006340;28;20420;-73
2022/05/22 04:44:53;;;;;;;19.38;9.50;;;10.20;99.90;;;;;;5005804;28;20448;-73
2022/05/22 04:47:18;;;;;;;19.17;10.05;;;10.20;99.90;;;;;;5004658;28;20128;-74
2022/05/22 04:49:48;;;;;;;21.27;8.88;;;10.30;99.90;;;;;;5006523;28;20091;-75
2022/05/22 04:52:14;;;;;;;16.30;9.32;;;10.30;99.90;;;;;;5003968;28;20077;-74
2022/05/22 04:54:39;;;;;;;29.75;11.23;;;10.40;99.90;;;;;;5006048;28;20088;-74
2022/05/22 04:57:05;;;;;;;20.13;9.55;;;10.50;99.90;;;;;;5005507;28;20113;-74
2022/05/22 04:59:30;;;;;;;17.40;9.18;;;10.50;99.90;;;;;;5005197;28;20062;-74
2022/05/22 05:01:56;;;;;;;14.10;8.52;;;10.50;99.90;;;;;;5005588;28;20389;-74
2022/05/22 05:04:22;;;;;;;14.77;8.57;;;10.40;99.90;;;;;;5005480;28;20081;-74
2022/05/22 05:06:47;;;;;;;12.80;8.30;;;10.40;99.90;;;;;;5005066;28;20386;-74
2022/05/22 05:09:13;;;;;;;15.60;8.88;;;10.50;99.90;;;;;;5005035;28;20057;-74
2022/05/22 05:11:39;;;;;;;18.98;9.48;;;10.60;99.90;;;;;;5005823;28;20054;-74
2022/05/22 05:14:04;;;;;;;23.58;10.20;;;10.60;99.90;;;;;;5005877;28;20176;-74
2022/05/22 05:16:30;;;;;;;16.65;8.55;;;10.70;99.90;;;;;;4988159;28;20140;-74
2022/05/22 05:18:56;;;;;;;20.67;9.40;;;10.80;99.90;;;;;;5005946;28;20049;-75
2022/05/22 05:21:21;;;;;;;16.38;8.70;;;10.90;99.90;;;;;;5019506;28;20038;-75
2022/05/22 05:23:47;;;;;;;15.55;8.52;;;10.90;99.90;;;;;;5005272;28;20042;-76
2022/05/22 05:26:13;;;;;;;22.48;9.75;;;10.90;99.90;;;;;;5005965;28;20046;-75
2022/05/22 05:28:38;;;;;;;17.17;10.70;;;11.00;99.90;;;;;;5005439;28;20041;-74
2022/05/22 05:31:04;;;;;;;15.38;8.88;;;11.00;99.90;;;;;;5005576;28;20030;-75
2022/05/22 05:33:33;;;;;;;19.73;8.68;;;11.10;99.90;;;;;;5005865;28;20042;-75
2022/05/22 05:36:00;;;;;;;19.33;10.38;;;11.20;99.90;;;;;;5004636;28;20421;-74
2022/05/22 05:38:26;;;;;;;15.55;8.15;;;11.20;99.90;;;;;;5004512;28;20049;-75
2022/05/22 05:40:52;;;;;;;17.33;8.30;;;11.20;99.90;;;;;;5005450;28;20126;-74
2022/05/22 05:43:19;;;;;;;19.75;9.60;;;11.20;99.90;;;;;;5005522;28;20133;-75
2022/05/22 05:45:44;;;;;;;17.50;8.98;;;11.30;99.90;;;;;;5006420;28;20057;-75
2022/05/22 05:48:10;;;;;;;14.75;8.02;;;11.40;99.90;;;;;;5005338;28;20062;-75
2022/05/22 05:50:36;;;;;;;15.93;8.80;;;11.50;99.90;;;;;;5005580;28;20053;-74
2022/05/22 05:53:02;;;;;;;13.75;7.82;;;11.40;99.90;;;;;;5004331;28;20046;-74
2022/05/22 05:55:29;;;;;;;18.60;9.80;;;11.60;99.90;;;;;;5005269;28;20053;-75
2022/05/22 05:57:56;;;;;;;22.45;10.48;;;11.60;99.90;;;;;;5005992;28;20550;-75
2022/05/22 06:00:24;;;;;;;17.75;9.65;;;11.70;99.90;;;;;;5004476;28;20046;-74
2022/05/22 06:02:50;;;;;;;15.70;8.55;;;11.70;99.90;;;;;;4988394;28;20062;-74
2022/05/22 06:05:16;;;;;;;17.08;8.65;;;11.80;99.90;;;;;;5005211;28;20446;-75
2022/05/22 06:07:42;;;;;;;17.48;8.52;;;11.80;99.90;;;;;;5006295;28;20130;-75
2022/05/22 06:10:10;;;;;;;12.73;8.25;;;11.90;99.90;;;;;;5011069;28;20046;-74
2022/05/22 06:12:36;;;;;;;10.70;7.53;;;12.00;99.90;;;;;;5012303;28;20042;-74
2022/05/22 06:15:02;;;;;;;14.38;9.73;;;12.10;99.90;;;;;;5010537;28;20095;-74
2022/05/22 06:17:30;;;;;;;14.90;6.95;;;12.10;99.90;;;;;;5007695;28;20062;-74
2022/05/22 06:19:55;;;;;;;17.65;7.32;;;12.20;99.90;;;;;;4991681;28;20054;-75
2022/05/22 06:22:23;;;;;;;13.27;7.57;;;12.30;99.90;;;;;;5006294;28;20049;-74
2022/05/22 06:24:49;;;;;;;19.10;8.23;;;12.40;99.90;;;;;;5009282;28;20046;-74
2022/05/22 06:27:15;;;;;;;18.63;7.43;;;12.50;99.90;;;;;;5009367;28;20053;-75
2022/05/22 06:29:42;;;;;;;12.27;8.43;;;12.60;99.90;;;;;;5009286;28;20026;-75
2022/05/22 06:32:11;;;;;;;15.77;8.13;;;12.60;99.90;;;;;;5008649;28;20125;-75
2022/05/22 06:34:41;;;;;;;20.17;7.47;;;12.70;99.90;;;;;;5008278;28;20084;-75
2022/05/22 06:37:10;;;;;;;18.63;6.68;;;12.80;99.90;;;;;;5007712;28;20820;-75
2022/05/22 06:39:49;;;;;;;15.40;6.47;;;12.90;99.90;;;;;;5007162;28;20038;-75
2022/05/22 06:42:30;;;;;;;12.57;6.40;;;13.00;99.90;;;;;;5009331;28;20428;-74
2022/05/22 06:45:03;;;;;;;14.77;7.75;;;13.00;99.90;;;;;;5008515;28;20124;-73
2022/05/22 06:47:30;;;;;;;15.38;6.45;;;13.10;99.90;;;;;;5007397;28;20357;-74
2022/05/22 06:49:58;;;;;;;13.45;5.82;;;13.20;99.90;;;;;;5008396;28;20046;-75
2022/05/22 06:52:25;;;;;;;22.35;7.47;;;13.30;99.90;;;;;;5007508;28;20459;-73
2022/05/22 06:54:51;;;;;;;11.35;5.22;;;13.60;99.90;;;;;;5007084;28;20125;-74
2022/05/22 06:57:19;;;;;;;20.58;7.88;;;13.60;99.90;;;;;;5007750;28;20052;-74
2022/05/22 06:59:46;;;;;;;14.73;5.70;;;13.80;99.90;;;;;;5008361;28;20484;-74
2022/05/22 07:02:13;;;;;;;19.13;6.03;;;13.90;99.90;;;;;;5007993;28;20045;-74
2022/05/22 07:04:38;;;;;;;11.77;4.97;;;15.20;99.90;;;;;;5006261;28;20089;-74
2022/05/22 07:07:05;;;;;;;14.85;4.68;;;16.60;99.90;;;;;;5006051;28;20088;-75
2022/05/22 07:09:30;;;;;;;10.40;4.43;;;17.50;99.90;;;;;;5008132;28;20049;-74
2022/05/22 07:11:56;;;;;;;13.93;4.43;;;17.90;99.90;;;;;;5006544;28;20489;-74
2022/05/22 07:14:22;;;;;;;13.23;6.03;;;18.10;99.90;;;;;;5007500;28;20042;-74
2022/05/22 07:16:48;;;;;;;12.13;4.20;;;18.40;99.90;;;;;;5006201;28;20481;-74
2022/05/22 07:19:16;;;;;;;10.45;3.42;;;18.60;99.90;;;;;;5007569;28;20038;-75
2022/05/22 07:21:41;;;;;;;10.98;3.63;;;19.50;99.90;;;;;;5005586;28;20046;-75
2022/05/22 07:24:07;;;;;;;8.88;3.00;;;19.20;99.90;;;;;;5006075;28;20046;-75
2022/05/22 07:26:33;;;;;;;13.05;4.85;;;20.00;99.90;;;;;;5006127;28;20041;-75
2022/05/22 07:28:58;;;;;;;12.23;3.45;;;20.20;99.90;;;;;;5006041;28;20062;-75
2022/05/22 07:31:26;;;;;;;9.82;3.63;;;19.90;99.90;;;;;;5006113;28;20417;-74
2022/05/22 07:33:51;;;;;;;12.55;3.40;;;20.20;99.90;;;;;;5006979;28;20052;-75
2022/05/22 07:36:18;;;;;;;8.43;3.28;;;20.50;99.90;;;;;;5006521;28;20420;-75
2022/05/22 07:38:44;;;;;;;8.80;3.47;;;20.00;99.90;;;;;;5007636;28;20042;-76
2022/05/22 07:41:12;;;;;;;7.93;2.78;;;18.80;99.90;;;;;;5007304;28;20095;-76
2022/05/22 07:43:38;;;;;;;8.43;3.22;;;18.50;99.90;;;;;;5007142;28;20049;-75
2022/05/22 07:46:05;;;;;;;9.50;2.65;;;17.80;99.90;;;;;;5006723;28;20042;-75
2022/05/22 07:48:31;;;;;;;13.15;3.35;;;17.80;99.90;;;;;;5007048;28;20057;-76
2022/05/22 07:50:59;;;;;;;7.47;2.88;;;17.80;99.90;;;;;;5005880;28;20049;-75
2022/05/22 07:53:26;;;;;;;12.38;3.40;;;17.60;99.90;;;;;;5007048;28;20052;-75
2022/05/22 07:55:51;;;;;;;7.47;3.03;;;17.40;99.90;;;;;;5006871;28;20053;-75
2022/05/22 07:58:18;;;;;;;10.13;3.90;;;17.30;99.90;;;;;;5006775;28;20037;-76
2022/05/22 08:00:44;;;;;;;8.43;3.35;;;17.40;99.90;;;;;;5007114;28;20081;-77
2022/05/22 08:03:13;;;;;;;9.20;2.53;;;17.50;99.90;;;;;;5005174;28;20049;-75
2022/05/22 08:05:39;;;;;;;5.60;2.05;;;17.50;99.90;;;;;;5006889;28;20176;-75
2022/05/22 08:08:05;;;;;;;6.72;2.47;;;17.40;99.90;;;;;;5004837;28;20132;-77
2022/05/22 08:10:31;;;;;;;10.18;2.95;;;17.60;99.90;;;;;;5005654;28;20539;-76
2022/05/22 08:12:57;;;;;;;10.18;2.25;;;17.60;99.90;;;;;;5021532;28;20389;-75
2022/05/22 08:15:25;;;;;;;6.95;1.88;;;17.80;99.90;;;;;;5006340;28;20057;-75
2022/05/22 08:17:50;;;;;;;9.55;3.13;;;17.70;99.90;;;;;;5006404;28;20153;-75
2022/05/22 08:20:19;;;;;;;7.13;2.17;;;17.70;99.90;;;;;;5007012;28;20068;-76
2022/05/22 08:22:46;;;;;;;10.95;3.47;;;17.90;99.90;;;;;;5005703;28;20057;-74
2022/05/22 08:25:15;;;;;;;6.78;1.73;;;17.80;99.90;;;;;;5021882;28;20070;-75
2022/05/22 08:27:41;;;;;;;6.30;2.47;;;18.00;99.90;;;;;;5006195;28;20072;-76
2022/05/22 08:30:08;;;;;;;7.20;2.20;;;18.10;99.90;;;;;;5006189;28;20563;-75
2022/05/22 08:32:41;;;;;;;11.63;4.25;;;18.10;99.90;;;;;;5006366;28;20050;-75
2022/05/22 08:35:09;;;;;;;4.55;1.70;;;18.10;99.90;;;;;;5006480;28;20396;-75
2022/05/22 08:37:35;;;;;;;7.40;2.33;;;17.70;99.90;;;;;;5004281;28;20053;-75
2022/05/22 08:40:01;;;;;;;5.43;2.05;;;17.80;99.90;;;;;;5004918;28;20050;-74
2022/05/22 08:42:48;;;;;;;7.60;2.15;;;18.00;99.90;;;;;;5021223;28;20409;-74
2022/05/22 08:45:26;;;;;;;9.43;3.97;;;18.10;99.90;;;;;;5006637;28;20042;-74
2022/05/22 08:48:14;;;;;;;11.95;2.67;;;18.10;99.90;;;;;;5005816;28;20050;-75
2022/05/22 08:50:41;;;;;;;11.77;3.00;;;17.40;99.90;;;;;;5005295;28;20050;-74
2022/05/22 08:53:15;;;;;;;10.50;2.30;;;17.60;99.90;;;;;;5005614;28;20084;-75
2022/05/22 08:59:01;;;;;;;9.90;2.35;;;17.70;99.90;;;;;;5005870;28;20518;-75
2022/05/22 09:01:38;;;;;;;7.20;2.33;;;17.40;99.90;;;;;;5005581;28;20045;-74
2022/05/22 09:04:23;;;;;;;8.68;2.13;;;17.20;99.90;;;;;;5005680;28;20046;-74
2022/05/22 09:07:07;;;;;;;8.27;2.10;;;17.60;99.90;;;;;;5004891;28;20098;-76
2022/05/22 09:09:36;;;;;;;7.00;2.58;;;18.00;99.90;;;;;;5006151;28;20125;-76
2022/05/22 09:12:32;;;;;;;15.63;2.65;;;18.30;99.90;;;;;;5005900;28;20057;-75
2022/05/22 09:15:11;;;;;;;7.50;1.63;;;18.40;99.90;;;;;;5005936;28;20042;-76
2022/05/22 09:17:43;;;;;;;9.73;1.77;;;18.50;99.90;;;;;;5005756;28;20042;-73
2022/05/22 09:20:40;;;;;;;11.57;2.30;;;18.40;99.90;;;;;;5005464;28;20042;-74
2022/05/22 09:23:48;;;;;;;7.03;2.60;;;17.90;99.90;;;;;;5002499;28;20080;-75
2022/05/22 09:26:51;;;;;;;6.03;2.42;;;17.60;99.90;;;;;;5005954;28;20128;-75
2022/05/22 09:29:37;;;;;;;10.65;3.65;;;17.50;99.90;;;;;;5005743;28;20042;-75
2022/05/22 09:32:12;;;;;;;7.00;2.53;;;18.20;99.90;;;;;;5005501;28;20141;-76
2022/05/22 09:35:00;;;;;;;12.10;3.10;;;18.50;99.90;;;;;;5005453;28;20042;-76
2022/05/22 09:38:03;;;;;;;9.02;2.50;;;18.60;99.90;;;;;;5003132;28;20078;-76
2022/05/22 09:40:41;;;;;;;7.53;2.22;;;18.90;99.90;;;;;;5005736;28;20111;-77
2022/05/22 09:43:34;;;;;;;8.95;1.85;;;19.20;99.90;;;;;;5004975;28;20453;-75
2022/05/22 09:46:10;;;;;;;8.80;3.10;;;19.30;99.90;;;;;;5009227;28;20073;-75
2022/05/22 09:48:55;;;;;;;8.95;2.15;;;19.30;99.90;;;;;;5009589;28;20061;-75
2022/05/22 09:51:56;;;;;;;9.50;2.70;;;19.00;99.90;;;;;;5008396;28;20081;-74
2022/05/22 09:54:46;;;;;;;5.28;1.75;;;18.60;99.90;;;;;;5009095;28;20541;-75
2022/05/22 09:57:41;;;;;;;8.05;2.72;;;18.50;99.90;;;;;;5009553;28;20061;-76
2022/05/22 10:00:10;;;;;;;12.10;2.33;;;18.10;99.90;;;;;;5008741;28;20061;-75
2022/05/22 10:02:41;;;;;;;7.35;2.58;;;18.60;99.90;;;;;;5024374;28;20050;-74
2022/05/22 10:05:46;;;;;;;8.23;2.22;;;19.00;99.90;;;;;;5008914;28;20061;-75
2022/05/22 10:08:17;;;;;;;5.68;2.05;;;19.10;99.90;;;;;;5008837;28;20038;-75
2022/05/22 10:11:13;;;;;;;11.65;3.17;;;19.50;99.90;;;;;;5009458;28;20830;-75
2022/05/22 10:14:03;;;;;;;8.13;2.10;;;19.10;99.90;;;;;;5008877;28;20046;-75
2022/05/22 10:16:39;;;;;;;10.18;2.08;;;19.50;99.90;;;;;;5008859;28;20050;-76
2022/05/22 10:19:11;;;;;;;6.95;2.17;;;19.70;99.90;;;;;;5008715;28;20141;-74
2022/05/22 10:22:09;;;;;;;6.65;1.92;;;19.80;99.90;;;;;;5008112;28;20049;-75
2022/05/22 10:24:56;;;;;;;5.35;1.70;;;19.70;99.90;;;;;;5008445;28;20057;-75
2022/05/22 10:28:03;;;;;;;5.20;2.80;;;19.80;99.90;;;;;;5008579;28;20134;-75
2022/05/22 10:30:41;;;;;;;9.65;2.15;;;19.70;99.90;;;;;;5007501;28;20143;-76
2022/05/22 10:33:25;;;;;;;6.22;3.03;;;19.80;99.90;;;;;;5008446;28;20445;-75
2022/05/22 10:36:02;;;;;;;5.05;1.35;;;19.30;99.90;;;;;;5007696;28;20045;-75
2022/05/22 10:38:36;;;;;;;8.93;3.03;;;19.80;99.90;;;;;;5008314;28;20416;-74
2022/05/22 10:44:20;;;;;;;9.45;2.13;;;20.00;99.90;;;;;;5007137;28;20393;-74
2022/05/22 10:46:46;;;;;;;6.07;1.63;;;19.90;99.90;;;;;;5007125;28;20116;-75
2022/05/22 10:49:12;;;;;;;5.78;1.60;;;20.10;99.90;;;;;;5008431;28;20405;-75
2022/05/22 10:51:37;;;;;;;8.80;2.35;;;20.00;99.90;;;;;;5007338;28;20286;-75
2022/05/22 10:54:03;;;;;;;9.30;2.13;;;19.60;99.90;;;;;;5022671;28;20497;-75
2022/05/22 10:56:32;;;;;;;9.93;2.45;;;19.70;99.90;;;;;;5008326;28;20124;-75
2022/05/22 10:59:04;;;;;;;7.33;1.80;;;20.00;99.90;;;;;;5007948;28;20072;-75
2022/05/22 11:01:38;;;;;;;6.10;2.08;;;20.10;99.90;;;;;;5008262;28;20052;-75
2022/05/22 11:04:08;;;;;;;5.75;1.77;;;20.20;99.90;;;;;;5007828;28;20050;-75
2022/05/22 11:06:36;;;;;;;;;;;20.50;99.90;;;;;;5007451;28;20133;-75
2022/05/22 11:09:04;;;;;;;8.05;2.63;;;20.70;99.90;;;;;;5007630;28;19917;-75
2022/05/22 11:11:33;;;;;;;6.78;1.60;;;20.60;99.90;;;;;;5007807;28;20053;-75
2022/05/22 11:14:11;;;;;;;4.45;1.85;;;21.00;99.90;;;;;;5007564;28;20149;-75
2022/05/22 11:16:37;;;;;;;5.75;2.00;;;21.10;99.90;;;;;;5007641;28;20121;-75
2022/05/22 11:19:11;;;;;;;6.35;2.80;;;20.40;99.90;;;;;;5007163;28;20165;-75
2022/05/22 11:21:43;;;;;;;7.35;2.00;;;20.10;99.90;;;;;;5005695;28;20267;-74
2022/05/22 11:24:43;;;;;;;6.30;1.63;;;20.10;99.90;;;;;;5007466;28;20099;-75
2022/05/22 11:27:15;;;;;;;;;;;20.20;99.90;;;;;;5007346;28;20054;-75
2022/05/22 11:30:08;;;;;;;6.25;1.70;;;20.60;99.90;;;;;;5007367;28;19921;-76
2022/05/22 11:32:46;;;;;;;7.13;1.92;;;20.70;99.90;;;;;;5007376;28;20050;-75
2022/05/22 11:35:30;;;;;;;9.18;1.73;;;20.90;99.90;;;;;;5005515;28;20045;-75
2022/05/22 11:38:10;;;;;;;8.32;2.22;;;21.20;99.90;;;;;;5007200;28;20046;-76
2022/05/22 11:40:52;;;;;;;10.30;2.85;;;21.20;99.90;;;;;;5007460;28;20447;-76
2022/05/22 11:43:44;;;;;;;9.95;2.60;;;21.10;99.90;;;;;;5006947;28;20057;-76
2022/05/22 11:46:13;;;;;;;6.18;1.92;;;21.20;99.90;;;;;;5005565;28;20397;-76
2022/05/22 11:49:05;;;;;;;6.85;1.70;;;21.20;99.90;;;;;;5004937;28;20136;-76
2022/05/22 11:51:45;;;;;;;8.38;2.63;;;21.00;99.90;;;;;;5004773;28;20046;-76
2022/05/22 11:54:25;;;;;;;10.10;2.25;;;21.30;99.90;;;;;;5006528;28;20040;-76
2022/05/22 11:57:00;;;;;;;6.43;2.03;;;21.10;99.90;;;;;;5007156;28;20103;-76
2022/05/22 11:59:53;;;;;;;5.20;1.88;;;21.20;99.90;;;;;;5006641;28;20103;-75
2022/05/22 12:02:52;;;;;;;5.28;1.35;;;21.20;99.90;;;;;;5006811;28;20132;-76
2022/05/22 12:05:30;;;;;;;6.75;2.10;;;21.20;99.90;;;;;;5005283;28;20054;-76
2022/05/22 12:08:14;;;;;;;6.22;2.17;;;21.10;99.90;;;;;;5021012;28;20077;-75
2022/05/22 12:10:50;;;;;;;7.57;2.35;;;21.30;99.90;;;;;;5006480;28;20050;-76
2022/05/22 12:13:41;;;;;;;10.27;1.38;;;21.20;99.90;;;;;;5006822;28;20069;-75
2022/05/22 12:16:16;;;;;;;3.55;1.70;;;21.40;99.90;;;;;;4981854;28;20064;-76
2022/05/22 12:18:59;;;;;;;5.97;2.33;;;21.50;99.90;;;;;;5021284;28;20046;-74
2022/05/22 12:21:53;;;;;;;6.68;2.20;;;20.80;99.90;;;;;;5004971;28;20073;-76
2022/05/22 12:24:40;;;;;;;6.35;1.45;;;20.70;99.90;;;;;;5006164;28;20045;-76
2022/05/22 12:27:20;;;;;;;6.05;3.08;;;20.40;99.90;;;;;;5006353;28;20041;-76
2022/05/22 12:30:07;;;;;;;6.40;1.70;;;20.50;99.90;;;;;;5020602;28;20077;-75
2022/05/22 12:32:57;;;;;;;7.88;1.95;;;20.40;99.90;;;;;;5006502;28;20085;-75
2022/05/22 12:35:24;;;;;;;7.22;1.88;;;20.30;99.90;;;;;;5003495;28;20123;-75
2022/05/22 12:37:55;;;;;;;5.43;1.52;;;20.20;99.90;;;;;;5005629;28;20053;-76
2022/05/22 12:40:46;;;;;;;5.68;1.42;;;19.90;99.90;;;;;;5005977;28;20551;-76
2022/05/22 12:43:23;;;;;;;3.63;1.10;;;19.90;99.90;;;;;;5005253;28;20053;-77
2022/05/22 12:45:59;;;;;;;7.15;1.50;;;19.80;99.90;;;;;;5005039;28;20080;-76
2022/05/22 12:48:24;;;;;;;5.50;1.85;;;19.80;99.90;;;;;;5004274;28;20413;-74
2022/05/22 12:50:54;;;;;;;3.33;1.05;;;20.10;99.90;;;;;;5005119;28;20050;-76
2022/05/22 12:53:31;;;;;;;6.85;2.22;;;20.10;99.90;;;;;;5004623;28;20120;-74
2022/05/22 12:56:15;;;;;;;4.78;1.50;;;20.20;99.90;;;;;;5005962;28;20057;-76
2022/05/22 12:58:51;;;;;;;1.60;0.82;;;20.20;99.90;;;;;;5005080;28;20081;-76
2022/05/22 13:01:31;;;;;;;4.97;1.42;;;20.30;99.90;;;;;;5006255;28;20046;-76
2022/05/22 13:04:18;;;;;;;5.88;2.03;;;20.40;99.90;;;;;;5004290;28;20049;-75
2022/05/22 13:06:52;;;;;;;5.05;1.38;;;20.40;99.90;;;;;;5005189;28;20057;-77
2022/05/22 13:09:44;;;;;;;3.85;1.30;;;20.40;99.90;;;;;;5005635;28;20041;-77
2022/05/22 13:12:13;;;;;;;9.70;2.13;;;19.90;99.90;;;;;;5005777;28;20068;-76
2022/05/22 13:14:47;;;;;;;6.18;2.25;;;19.90;99.90;;;;;;5005611;28;20047;-75
2022/05/22 13:17:15;;;;;;;5.50;1.25;;;19.90;99.90;;;;;;5007333;28;20037;-76